Decoded Metar for KART (WATERTOWN in NY, USA) (IATA:ART) | Meteo·Mobile Aviation Weather
aviador You're here:

KART Decoded Metar

WATERTOWN in NY, USA
Report Time2018-10-23 09:56:00
UTC Time2018-10-23 10:19:11
Flight Rules vfr VFR
Wind080° at 05 kt
W.Decomp.*RWY 10: 5.0 kt HW 0.7 kt LCW
RWY 07: 4.6 kt HW 1.9 kt RCW
W.Rank080° ranks 18
Current wind is above 080° avg. (4.1)
Visibility9999 m
Phenomena:N/A
Clouds:Overcast 060 Hf
Expected CloudBase > 400 ft AGL from Temp-Dew spread
Ceiling6,000 ft
Temp02°C (ISA -12)
Dew Point01°C (93% RH)
AAT-1.6°C
QNH1016 hPa
Density Alt-1,184 ft
Elevation328 ft
Report Wrong Elevation
Raw Report
KART 230956Z AUTO 08005KT 10SM OVC060 02/01 A2999 RMK AO2 SLP159
T00170011=

Extra information for KART:More info

Metar Taf Metar & Taf Last 4 Metars F.Rules Stats Wind Profile Meteogram Temp Stats Airport Information Weather charts Add Link Nearby VenuesMetar ALERT Operation Metar Decoded Social comments

AIRNAV info for KART